NZWN/WLG METAR and TAF weather

Enter ICAO airport designator
Station Type Date Time Source
NZWN METAR 2019/02/23 01:00 UTC NOAA

NZWN 230100Z AUTO 18010KT 9999 BKN060/// 18/13 Q1005 NOSIG


Station Type Date Time Source
NZWN Decoded METAR 2019/02/23 01:00 UTC NOAA

Wellington Airport, New Zealand (NZWN) 41-20S 174-48E 8M
Feb 22, 2019 - 08:00 PM EST / 2019.02.23 0100 UTC
Wind: from the S (180 degrees) at 12 MPH (10 KT):0
Visibility: greater than 7 mile(s):0
Sky conditions: mostly cloudy
Temperature: 64 F (18 C)
Dew Point: 55 F (13 C)
Relative Humidity: 72%
Pressure (altimeter): 29.68 in. Hg (1005 hPa)
ob: NZWN 230100Z AUTO 18010KT 9999 BKN060/// 18/13 Q1005 NOSIG
cycle: 1

Station Type Date Time Source
NZWN TAF 2019/02/22 20:50 UTC NOAA

TAF
AMD NZWN 222039Z 2220/2318 18012KT 9999 -SHRA FEW016 BKN050
BECMG 2309/2311 04005KT
TEMPO 2310/2318 6000 RA BKN014


Example: see airport list